Time;durP1;ratioP1;P1;durP2;ratioP2;P2;SDS_P1;SDS_P2;PMS_P1;PMS_P2;Temp;Humidity;BMP_temperature;BMP_pressure;BME280_temperature;BME280_humidity;BME280_pressure;Samples;Min_cycle;Max_cycle;Signal;HPM_P1;HPM_P2
2022/06/06 00:01:57;;;;;;;10.38;9.30;;;;;;;18.95;69.24;99309.59;5069966;28;20056;-60
2022/06/06 00:04:29;;;;;;;14.60;11.35;;;;;;;18.92;68.89;99301.06;5070135;28;20155;-63
2022/06/06 00:06:58;;;;;;;12.10;10.13;;;;;;;18.91;69.02;99310.06;5070039;28;20044;-60
2022/06/06 00:09:26;;;;;;;10.40;9.38;;;;;;;18.90;68.85;99306.56;5069967;28;20286;-61
2022/06/06 00:11:59;;;;;;;14.90;9.90;;;;;;;18.85;69.01;99315.03;5070314;28;20400;-62
2022/06/06 00:14:26;;;;;;;11.52;10.00;;;;;;;18.85;68.86;99317.69;5072557;28;20056;-61
2022/06/06 00:16:53;;;;;;;12.25;10.85;;;;;;;18.83;68.57;99319.66;5073561;28;20048;-61
2022/06/06 00:19:20;;;;;;;16.95;11.38;;;;;;;18.80;68.58;99308.47;5073747;28;20057;-64
2022/06/06 00:21:48;;;;;;;13.35;11.45;;;;;;;18.78;68.50;99316.63;5072121;28;20416;-61
2022/06/06 00:24:14;;;;;;;16.42;13.85;;;;;;;18.74;68.33;99328.56;5073508;28;20056;-61
2022/06/06 00:26:42;;;;;;;16.63;14.88;;;;;;;18.72;68.45;99322.53;5073308;28;20052;-60
2022/06/06 00:29:12;;;;;;;18.02;16.10;;;;;;;18.71;68.37;99315.53;5072321;28;20075;-61
2022/06/06 00:37:12;;;;;;;23.48;19.90;;;;;;;18.67;68.95;99330.16;5073222;28;20488;-61
2022/06/06 00:39:41;;;;;;;23.75;20.58;;;;;;;18.67;68.62;99327.50;5072200;28;20056;-60
2022/06/06 00:42:23;;;;;;;23.45;20.30;;;;;;;18.65;68.94;99334.81;5071702;28;20075;-63
2022/06/06 00:45:19;;;;;;;24.52;19.25;;;;;;;18.61;69.26;99327.13;5073217;28;20072;-62
2022/06/06 00:48:04;;;;;;;22.60;20.02;;;;;;;18.65;69.05;99329.47;5071963;28;20056;-61
2022/06/06 00:50:52;;;;;;;31.23;20.63;;;;;;;18.67;68.65;99340.81;5072680;28;20517;-61
2022/06/06 00:53:26;;;;;;;26.30;21.88;;;;;;;18.68;69.23;99337.16;5072942;28;20060;-63
2022/06/06 00:55:58;;;;;;;29.67;24.40;;;;;;;18.68;69.10;99345.16;5071582;28;20072;-60
2022/06/06 00:58:28;;;;;;;31.85;25.55;;;;;;;18.70;69.10;99356.53;5071818;28;20060;-62
2022/06/06 01:00:55;;;;;;;30.20;26.00;;;;;;;18.70;69.11;99352.03;5072773;28;20060;-61
2022/06/06 01:03:25;;;;;;;35.35;27.00;;;;;;;18.69;69.21;99346.84;5072660;28;20455;-61
2022/06/06 01:05:54;;;;;;;33.35;25.27;;;;;;;18.69;68.92;99347.69;5071419;28;20603;-63
2022/06/06 01:08:21;;;;;;;30.98;24.63;;;;;;;18.70;68.99;99343.19;5071304;28;20048;-60
2022/06/06 01:10:48;;;;;;;32.70;25.35;;;;;;;18.71;68.86;99347.53;5071337;28;20079;-61
2022/06/06 01:13:17;;;;;;;30.75;25.20;;;;;;;18.70;68.57;99349.38;5072755;28;20049;-62
2022/06/06 01:16:11;;;;;;;28.92;23.40;;;;;;;18.67;68.86;99348.81;5072659;28;20048;-61
2022/06/06 01:19:12;;;;;;;29.02;22.70;;;;;;;18.67;68.79;99357.66;5072486;28;20135;-62
2022/06/06 01:22:06;;;;;;;28.08;20.50;;;;;;;18.66;68.74;99358.66;5071956;28;20044;-64
2022/06/06 01:24:48;;;;;;;27.73;19.65;;;;;;;18.67;68.54;99355.00;5072584;28;20060;-61
2022/06/06 01:27:45;;;;;;;31.00;20.02;;;;;;;18.65;68.47;99346.31;5072302;28;20396;-63
2022/06/06 01:30:19;;;;;;;29.75;20.80;;;;;;;18.67;68.74;99359.47;5072269;28;20074;-61
2022/06/06 01:32:52;;;;;;;30.00;20.27;;;;;;;18.67;68.76;99354.16;5071032;28;20044;-62
2022/06/06 01:35:34;;;;;;;29.02;20.75;;;;;;;18.66;69.07;99363.16;5071068;28;20059;-62
2022/06/06 01:38:02;;;;;;;32.55;20.67;;;;;;;18.71;68.71;99363.53;5072270;28;20060;-61
2022/06/06 01:40:43;;;;;;;31.63;21.27;;;;;;;18.68;69.07;99369.16;5072390;28;20780;-63
2022/06/06 01:43:15;;;;;;;32.88;21.17;;;;;;;18.70;68.79;99369.84;5071957;28;20493;-62
2022/06/06 01:45:45;;;;;;;30.50;19.27;;;;;;;18.72;69.14;99378.53;5070711;28;20106;-61
2022/06/06 01:48:16;;;;;;;29.25;20.45;;;;;;;18.70;68.88;99367.19;5072048;28;20063;-63
2022/06/06 01:50:43;;;;;;;29.92;20.17;;;;;;;18.71;68.91;99377.72;5070628;28;20052;-61
2022/06/06 01:53:16;;;;;;;30.83;19.92;;;;;;;18.69;68.56;99377.00;5071820;28;20114;-63
2022/06/06 01:55:45;;;;;;;32.67;20.27;;;;;;;18.69;68.64;99373.53;5071773;28;20052;-61
2022/06/06 01:58:27;;;;;;;34.20;20.98;;;;;;;18.67;68.68;99381.66;5070450;28;20052;-63
2022/06/06 02:00:54;;;;;;;33.08;19.80;;;;;;;18.67;68.50;99379.00;5071429;28;20480;-61
2022/06/06 02:03:21;;;;;;;41.15;22.80;;;;;;;18.67;68.79;99380.81;5071716;28;20135;-61
2022/06/06 02:05:48;;;;;;;41.95;24.60;;;;;;;18.65;68.67;99385.47;5071691;28;20102;-60
2022/06/06 02:08:15;;;;;;;38.30;23.33;;;;;;;18.64;68.53;99391.78;5070195;28;20055;-62
2022/06/06 02:10:42;;;;;;;42.13;25.13;;;;;;;18.59;68.63;99390.41;5069920;28;20056;-62
2022/06/06 02:13:10;;;;;;;44.97;24.70;;;;;;;18.57;68.41;99400.38;5071279;28;20075;-60
2022/06/06 02:15:37;;;;;;;41.53;24.20;;;;;;;18.54;68.52;99407.84;5070328;28;20056;-62
2022/06/06 02:18:04;;;;;;;47.15;26.33;;;;;;;18.49;68.50;99416.25;5070157;28;20052;-60
2022/06/06 02:20:32;;;;;;;41.40;25.42;;;;;;;18.45;68.29;99414.88;5071179;28;20075;-62
2022/06/06 02:22:59;;;;;;;46.55;26.10;;;;;;;18.39;68.45;99426.13;5071071;28;20047;-62
2022/06/06 02:25:28;;;;;;;50.88;27.05;;;;;;;18.33;68.56;99423.06;5071186;28;20059;-62
2022/06/06 02:27:56;;;;;;;47.05;26.23;;;;;;;18.29;67.92;99429.69;5069700;28;20488;-62
2022/06/06 02:30:26;;;;;;;48.85;26.65;;;;;;;18.23;68.10;99436.41;5070818;28;20048;-62
2022/06/06 02:32:54;;;;;;;51.03;27.60;;;;;;;18.17;67.92;99438.84;5071038;28;20075;-62
2022/06/06 02:35:24;;;;;;;45.90;25.77;;;;;;;18.10;68.13;99428.72;5070351;28;20041;-62
2022/06/06 02:37:54;;;;;;;47.22;25.60;;;;;;;18.04;68.20;99444.41;5071052;28;20047;-61
2022/06/06 02:40:21;;;;;;;46.08;24.85;;;;;;;17.98;68.20;99445.84;5070878;28;20061;-61
2022/06/06 02:42:48;;;;;;;37.83;23.05;;;;;;;17.92;67.88;99436.63;5070800;28;20489;-61
2022/06/06 02:45:16;;;;;;;42.25;23.98;;;;;;;17.88;68.43;99434.38;5070948;28;20055;-62
2022/06/06 02:47:46;;;;;;;44.72;25.42;;;;;;;17.84;68.41;99453.28;5069517;28;20067;-62
2022/06/06 02:50:16;;;;;;;40.70;24.00;;;;;;;17.81;68.58;99442.09;5070733;28;20102;-62
2022/06/06 02:52:43;;;;;;;40.30;23.15;;;;;;;17.80;68.44;99443.09;5069450;28;20084;-63
2022/06/06 02:55:12;;;;;;;37.85;21.77;;;;;;;17.78;68.19;99456.53;5070693;28;20051;-62
2022/06/06 02:57:45;;;;;;;31.67;19.23;;;;;;;17.73;67.94;99436.63;5070723;28;20075;-61
2022/06/06 03:00:16;;;;;;;34.65;20.23;;;;;;;17.75;67.95;99445.34;5069489;28;20377;-61
2022/06/06 03:02:42;;;;;;;28.83;19.27;;;;;;;17.74;68.01;99449.81;5069397;28;20052;-62
2022/06/06 03:05:09;;;;;;;32.47;19.17;;;;;;;17.75;68.28;99458.66;5070582;28;20642;-61
2022/06/06 03:07:54;;;;;;;28.38;17.63;;;;;;;17.72;68.65;99449.13;5070354;28;20049;-62
2022/06/06 03:10:39;;;;;;;27.75;17.13;;;;;;;17.77;68.06;99454.00;5070281;28;20045;-60
2022/06/06 03:13:18;;;;;;;22.80;15.60;;;;;;;17.77;67.87;99454.84;5070403;28;20044;-62
2022/06/06 03:22:22;;;;;;;24.38;14.75;;;;;;;17.84;67.72;99463.94;5070117;28;20049;-63
2022/06/06 03:25:16;;;;;;;22.00;14.65;;;;;;;17.88;67.38;99459.19;5070579;28;20044;-61
2022/06/06 03:27:42;;;;;;;24.17;14.93;;;;;;;17.93;67.23;99458.75;5069158;28;20436;-60
2022/06/06 03:30:43;;;;;;;24.50;15.35;;;;;;;17.89;67.22;99455.53;5070895;28;20056;-61
2022/06/06 03:33:39;;;;;;;21.02;14.25;;;;;;;17.91;66.96;99463.38;5070223;28;20048;-62
2022/06/06 03:36:24;;;;;;;19.08;12.70;;;;;;;17.92;67.06;99462.41;5070353;28;20056;-61
2022/06/06 03:38:58;;;;;;;19.23;13.75;;;;;;;17.95;66.78;99472.78;5069118;28;20060;-62
2022/06/06 03:41:27;;;;;;;20.83;12.98;;;;;;;17.93;66.75;99464.06;5070115;28;20066;-62
2022/06/06 03:44:06;;;;;;;19.30;12.98;;;;;;;17.91;66.74;99450.06;5070254;28;20059;-61
2022/06/06 03:46:49;;;;;;;19.60;12.38;;;;;;;17.87;66.85;99459.31;5073422;28;20052;-61
2022/06/06 03:49:38;;;;;;;19.63;12.80;;;;;;;17.88;66.58;99458.34;5074391;28;20526;-63
2022/06/06 03:52:25;;;;;;;17.67;11.02;;;;;;;17.90;66.59;99464.38;5074015;28;20052;-61
2022/06/06 03:55:07;;;;;;;18.50;10.88;;;;;;;17.87;66.51;99462.81;5074244;28;20048;-60
2022/06/06 03:57:35;;;;;;;16.90;11.35;;;;;;;17.91;66.40;99468.72;5073007;28;20059;-61
2022/06/06 04:00:12;;;;;;;19.00;12.10;;;;;;;17.91;66.59;99466.03;5072883;28;20146;-61
2022/06/06 04:02:41;;;;;;;18.02;11.82;;;;;;;17.92;66.70;99463.25;5074081;28;20444;-61
2022/06/06 04:05:12;;;;;;;17.77;11.80;;;;;;;17.92;66.34;99462.41;5072692;28;20048;-61
2022/06/06 04:07:39;;;;;;;17.95;12.57;;;;;;;17.95;66.42;99459.47;5056187;28;20053;-61
2022/06/06 04:10:07;;;;;;;18.85;12.50;;;;;;;17.94;66.45;99465.78;5073825;28;20037;-62
2022/06/06 04:13:01;;;;;;;18.02;12.43;;;;;;;17.91;66.34;99474.84;5072373;28;20048;-61
2022/06/06 04:15:45;;;;;;;20.00;11.98;;;;;;;17.91;66.41;99471.38;5073787;28;20084;-61
2022/06/06 04:18:31;;;;;;;;;;;;;;;17.95;66.43;99475.44;5074085;28;20056;-60
2022/06/06 04:21:15;;;;;;;17.10;11.68;;;;;;;17.98;66.27;99472.47;5073361;28;19931;-63
2022/06/06 04:24:04;;;;;;;14.73;11.00;;;;;;;17.95;66.26;99478.09;5073518;28;20052;-62
2022/06/06 04:26:49;;;;;;;19.55;13.23;;;;;;;17.92;66.34;99473.91;5073500;28;20041;-60
2022/06/06 04:29:32;;;;;;;18.65;13.20;;;;;;;17.91;66.36;99474.03;5072157;28;20409;-61
2022/06/06 04:32:14;;;;;;;21.00;13.02;;;;;;;17.94;66.25;99484.41;5071999;28;20056;-62
2022/06/06 04:34:56;;;;;;;18.83;13.48;;;;;;;17.91;65.89;99479.34;5073247;28;20052;-61
2022/06/06 04:37:31;;;;;;;22.52;13.43;;;;;;;17.94;65.93;99477.25;5073273;28;20045;-62
2022/06/06 04:40:06;;;;;;;19.50;12.80;;;;;;;17.94;65.99;99489.75;5073503;28;20049;-61
2022/06/06 04:42:33;;;;;;;20.30;13.60;;;;;;;17.94;66.01;99481.75;5073071;28;20048;-60
2022/06/06 04:45:06;;;;;;;;;;;;;;;17.94;66.05;99497.72;5073448;28;20107;-61
2022/06/06 04:47:38;;;;;;;18.02;11.98;;;;;;;17.96;66.21;99504.59;5072973;28;19927;-62
2022/06/06 04:50:23;;;;;;;20.42;13.73;;;;;;;17.94;66.39;99505.72;5073144;28;20052;-64
2022/06/06 04:52:58;;;;;;;20.00;13.52;;;;;;;17.96;66.30;99501.06;5072949;28;20060;-60
2022/06/06 04:55:25;;;;;;;22.75;13.82;;;;;;;17.98;66.28;99493.75;5071847;28;20053;-64
2022/06/06 04:57:56;;;;;;;20.38;13.65;;;;;;;17.98;66.47;99509.75;5071909;28;20098;-61
2022/06/06 05:00:24;;;;;;;18.85;12.68;;;;;;;18.01;66.08;99519.31;5071701;28;20218;-60
2022/06/06 05:02:51;;;;;;;18.10;12.77;;;;;;;18.01;65.81;99498.81;5071569;28;20044;-61
2022/06/06 05:05:18;;;;;;;23.27;14.20;;;;;;;18.01;66.02;99506.81;5072654;28;20045;-62
2022/06/06 05:08:16;;;;;;;22.10;13.65;;;;;;;17.95;66.06;99502.88;5072507;28;20052;-61
2022/06/06 05:11:04;;;;;;;21.00;13.25;;;;;;;18.01;65.97;99505.97;5044813;28;20394;-61
2022/06/06 05:14:02;;;;;;;16.23;12.07;;;;;;;17.98;66.49;99509.75;5072626;28;20049;-62
2022/06/06 05:17:06;;;;;;;19.95;13.00;;;;;;;18.00;66.35;99501.63;5044662;28;20056;-62
2022/06/06 05:20:00;;;;;;;21.33;13.02;;;;;;;18.03;66.31;99509.34;5072808;28;20052;-61
2022/06/06 05:23:09;;;;;;;20.50;13.13;;;;;;;18.04;66.29;99509.19;5072176;28;20504;-62
2022/06/06 05:25:42;;;;;;;17.90;12.60;;;;;;;18.07;66.38;99506.25;5071359;28;20052;-61
2022/06/06 05:28:20;;;;;;;;;;;;;;;18.10;66.32;99513.97;5071219;28;20055;-63
2022/06/06 05:31:01;;;;;;;19.42;12.45;;;;;;;18.13;66.18;99520.00;5072021;28;19928;-63
2022/06/06 05:33:41;;;;;;;20.83;13.40;;;;;;;18.13;66.06;99517.34;5072428;28;20098;-63
2022/06/06 05:36:42;;;;;;;18.30;12.70;;;;;;;18.07;66.55;99524.91;5072161;28;20056;-60
2022/06/06 05:39:31;;;;;;;15.10;10.68;;;;;;;18.10;66.59;99521.13;5072118;28;20056;-62
2022/06/06 05:42:31;;;;;;;16.75;10.30;;;;;;;18.10;66.94;99521.97;5071577;28;20056;-63
2022/06/06 05:44:58;;;;;;;14.73;11.27;;;;;;;18.16;66.60;99515.22;5071933;28;20063;-62
2022/06/06 05:47:55;;;;;;;16.60;11.60;;;;;;;18.10;67.11;99524.63;5071930;28;20053;-62
2022/06/06 05:50:59;;;;;;;16.15;10.70;;;;;;;18.10;67.26;99529.94;5071605;28;20451;-63
2022/06/06 05:53:47;;;;;;;13.45;10.48;;;;;;;18.12;67.02;99526.31;5071149;28;20121;-66
2022/06/06 05:56:45;;;;;;;17.23;12.38;;;;;;;18.07;67.57;99529.38;5071560;28;20048;-61
2022/06/06 05:59:15;;;;;;;19.30;12.80;;;;;;;18.10;67.04;99537.13;5071944;28;20048;-61
2022/06/06 06:01:51;;;;;;;19.42;13.32;;;;;;;18.08;67.31;99525.75;5071548;28;20045;-61
2022/06/06 06:04:53;;;;;;;18.60;13.50;;;;;;;18.03;67.71;99526.16;5070361;28;20117;-61
2022/06/06 06:07:34;;;;;;;18.75;13.27;;;;;;;18.03;67.72;99526.16;5071831;28;20048;-64
2022/06/06 06:10:00;;;;;;;21.98;13.93;;;;;;;18.06;67.52;99531.19;5070325;28;20044;-61
2022/06/06 06:12:45;;;;;;;22.35;14.25;;;;;;;18.04;68.28;99527.84;5071395;28;20059;-61
2022/06/06 06:15:29;;;;;;;19.95;14.68;;;;;;;18.04;68.18;99525.19;5071330;28;20049;-61
2022/06/06 06:17:56;;;;;;;;;;;;;;;18.09;67.73;99533.59;5072125;28;20139;-63
2022/06/06 06:20:27;;;;;;;22.38;15.20;;;;;;;18.14;67.69;99533.19;5071182;28;19921;-61
2022/06/06 06:23:03;;;;;;;24.20;17.15;;;;;;;18.13;68.45;99530.66;5070137;28;20052;-61
2022/06/06 06:25:33;;;;;;;24.05;16.52;;;;;;;18.15;67.77;99534.88;5070395;28;20114;-63
2022/06/06 06:28:07;;;;;;;25.30;18.05;;;;;;;18.15;68.45;99539.34;5070038;28;20439;-63
2022/06/06 06:30:55;;;;;;;25.52;17.75;;;;;;;18.15;68.59;99531.34;5069873;28;20496;-61
2022/06/06 06:33:57;;;;;;;25.13;17.20;;;;;;;18.14;68.66;99543.84;5069960;28;20052;-61
2022/06/06 06:37:12;;;;;;;24.73;17.83;;;;;;;18.18;68.59;99544.38;5065848;28;20053;-63
2022/06/06 06:39:50;;;;;;;27.65;17.48;;;;;;;18.22;68.31;99545.78;5070935;28;20052;-61
2022/06/06 06:42:33;;;;;;;26.77;18.50;;;;;;;18.26;68.16;99539.19;5070796;28;20040;-62
2022/06/06 06:45:07;;;;;;;26.02;17.95;;;;;;;18.25;68.17;99552.66;5071391;28;20056;-61
2022/06/06 06:47:36;;;;;;;26.38;18.50;;;;;;;18.31;67.99;99552.91;5071056;28;20053;-64
2022/06/06 06:50:14;;;;;;;27.33;18.13;;;;;;;18.31;68.18;99558.25;5069522;28;20110;-63
2022/06/06 06:52:50;;;;;;;24.75;17.35;;;;;;;18.34;68.24;99568.63;5071109;28;20056;-64
2022/06/06 06:55:30;;;;;;;26.88;18.60;;;;;;;18.38;67.91;99571.84;5070656;28;20059;-62
2022/06/06 06:58:13;;;;;;;23.80;17.17;;;;;;;18.41;67.99;99571.56;5070142;28;20105;-62
2022/06/06 07:00:55;;;;;;;24.00;16.55;;;;;;;18.47;67.20;99573.63;5069774;28;20097;-61
2022/06/06 07:10:03;;;;;;;23.00;17.20;;;;;;;18.60;66.95;99572.50;5070256;28;20056;-63
2022/06/06 07:12:57;;;;;;;26.27;17.45;;;;;;;18.61;66.84;99574.16;5069192;28;20459;-61
2022/06/06 07:15:48;;;;;;;28.17;16.45;;;;;;;18.64;66.98;99579.22;5070641;28;20498;-61
2022/06/06 07:18:17;;;;;;;26.50;17.45;;;;;;;18.70;66.58;99589.31;5070755;28;20091;-62
2022/06/06 07:20:46;;;;;;;22.17;16.70;;;;;;;18.75;66.83;99583.53;5069953;28;20057;-62
2022/06/06 07:23:15;;;;;;;21.48;16.70;;;;;;;18.81;66.75;99588.31;5070593;28;20118;-61
2022/06/06 07:25:44;;;;;;;22.73;16.23;;;;;;;18.86;66.37;99588.69;5069185;28;20052;-62
2022/06/06 07:28:14;;;;;;;19.08;14.93;;;;;;;18.95;66.63;99591.47;5070369;28;20642;-61
2022/06/06 07:31:01;;;;;;;20.42;15.10;;;;;;;19.00;65.26;99586.53;5069319;28;20411;-61
2022/06/06 07:33:50;;;;;;;20.08;13.88;;;;;;;19.08;64.28;99589.34;5056437;28;20052;-63
2022/06/06 07:36:38;;;;;;;18.42;13.23;;;;;;;19.16;63.95;99595.75;5069184;28;20052;-62
2022/06/06 07:39:35;;;;;;;18.02;13.55;;;;;;;19.18;63.42;99591.13;5069181;28;20488;-61
2022/06/06 07:42:34;;;;;;;17.30;12.98;;;;;;;19.23;63.69;99589.72;5070140;28;20044;-62
2022/06/06 07:45:22;;;;;;;17.63;11.48;;;;;;;19.27;62.90;99595.56;5070627;28;20075;-62
2022/06/06 07:48:23;;;;;;;13.55;10.50;;;;;;;19.32;62.71;99598.63;5070453;28;20057;-61
2022/06/06 07:51:14;;;;;;;13.25;10.05;;;;;;;19.37;62.43;99606.22;5070109;28;20572;-65
2022/06/06 07:54:07;;;;;;;9.45;7.85;;;;;;;19.46;62.79;99599.13;5070258;28;20044;-62
2022/06/06 07:56:42;;;;;;;9.30;7.40;;;;;;;19.58;61.75;99600.59;5070267;28;20052;-61
2022/06/06 07:59:43;;;;;;;9.48;6.38;;;;;;;19.64;61.32;99596.50;5070418;28;20049;-61
2022/06/06 08:02:19;;;;;;;10.70;6.70;;;;;;;19.75;61.05;99604.28;5070062;28;20563;-61
2022/06/06 08:05:02;;;;;;;8.93;6.95;;;;;;;19.75;60.16;99600.78;5070228;28;20058;-61
2022/06/06 08:07:52;;;;;;;9.32;6.97;;;;;;;19.78;58.76;99601.28;5069102;28;20044;-61
2022/06/06 08:10:40;;;;;;;8.50;6.43;;;;;;;19.82;59.59;99601.00;5068669;28;20052;-63
2022/06/06 08:13:30;;;;;;;7.75;6.20;;;;;;;19.90;59.32;99596.59;5068835;28;20078;-63
2022/06/06 08:16:06;;;;;;;12.05;6.72;;;;;;;19.93;58.86;99601.63;5069077;28;20044;-62
2022/06/06 08:19:00;;;;;;;11.25;6.13;;;;;;;19.97;59.50;99604.00;5068938;28;20048;-62
2022/06/06 08:21:39;;;;;;;;;;;;;;;20.09;60.52;99605.47;5069050;28;20143;-63
2022/06/06 08:24:11;;;;;;;6.63;5.43;;;;;;;20.23;nan;99600.56;5070178;28;19928;-62
2022/06/06 08:27:01;;;;;;;7.63;5.43;;;;;;;20.34;59.70;99600.34;5069264;28;20102;-61
2022/06/06 08:29:30;;;;;;;6.38;5.22;;;;;;;20.44;59.04;99603.75;5068718;28;20059;-63
2022/06/06 08:31:56;;;;;;;8.07;5.93;;;;;;;20.51;59.59;99598.59;5068676;28;20056;-62
2022/06/06 08:34:23;;;;;;;8.30;6.60;;;;;;;20.59;59.35;99599.66;5073396;28;20061;-63
2022/06/06 08:37:33;;;;;;;7.40;6.55;;;;;;;20.62;58.44;99602.88;5073287;28;20049;-61
2022/06/06 08:40:04;;;;;;;7.05;6.35;;;;;;;20.72;58.07;99599.25;5073463;28;20052;-62
2022/06/06 08:42:43;;;;;;;8.20;6.70;;;;;;;20.69;57.04;99595.03;5071956;28;20053;-62
2022/06/06 08:45:15;;;;;;;6.82;6.13;;;;;;;20.69;57.03;99597.72;5073470;28;20040;-62
2022/06/06 08:48:02;;;;;;;6.40;5.80;;;;;;;20.65;56.53;99601.72;5073297;28;20055;-62
2022/06/06 08:51:01;;;;;;;6.97;5.80;;;;;;;20.61;56.02;99601.19;5071798;28;20136;-62
2022/06/06 08:53:48;;;;;;;7.32;5.30;;;;;;;20.60;56.66;99596.00;5072149;28;20054;-61
2022/06/06 08:56:41;;;;;;;7.90;5.13;;;;;;;20.47;55.49;99617.78;5073262;28;20057;-62
2022/06/06 08:59:27;;;;;;;6.82;4.55;;;;;;;20.44;56.08;99610.91;5071740;28;20055;-62
2022/06/06 09:02:24;;;;;;;9.30;4.88;;;;;;;20.31;55.90;99600.63;5072133;28;20048;-63
2022/06/06 09:05:28;;;;;;;5.70;4.35;;;;;;;20.27;55.57;99604.63;5071664;28;20052;-61
2022/06/06 09:08:30;;;;;;;6.45;4.00;;;;;;;20.23;56.72;99606.78;5072590;28;20040;-62
2022/06/06 09:11:34;;;;;;;7.28;4.00;;;;;;;20.25;56.35;99604.75;5072646;28;20122;-62
2022/06/06 09:14:06;;;;;;;;;;;;;;;20.33;57.95;99603.97;5072999;28;20071;-62
2022/06/06 09:16:55;;;;;;;4.65;3.65;;;;;;;20.46;57.53;99605.41;5071879;28;19920;-61
2022/06/06 09:19:34;;;;;;;6.50;4.10;;;;;;;20.54;57.30;99608.16;5071877;28;20041;-62
2022/06/06 09:22:19;;;;;;;5.38;3.50;;;;;;;20.60;55.98;99607.53;5071686;28;20082;-62
2022/06/06 09:24:58;;;;;;;4.15;3.25;;;;;;;20.69;54.82;99614.63;5072785;28;20068;-63
2022/06/06 09:27:51;;;;;;;14.57;2.70;;;;;;;20.81;54.61;99609.00;5072704;28;20109;-63
2022/06/06 09:30:27;;;;;;;9.55;2.83;;;;;;;20.94;52.33;99605.94;5072223;28;20066;-63
2022/06/06 09:33:27;;;;;;;4.18;2.58;;;;;;;21.03;52.74;99612.16;5072506;28;20059;-61
2022/06/06 09:36:38;;;;;;;2.72;2.25;;;;;;;21.13;53.71;99607.53;5072362;28;20048;-64
2022/06/06 09:39:21;;;;;;;5.05;2.47;;;;;;;21.25;52.95;99602.72;5052594;28;20072;-62
2022/06/06 09:42:19;;;;;;;3.10;2.25;;;;;;;21.35;51.74;99605.28;5072264;28;20101;-61
2022/06/06 09:44:58;;;;;;;2.67;2.33;;;;;;;21.49;52.45;99617.19;5070697;28;20067;-61
2022/06/06 09:48:03;;;;;;;3.20;2.22;;;;;;;21.60;52.41;99602.66;5072114;28;20071;-62
2022/06/06 09:50:54;;;;;;;2.53;2.00;;;;;;;21.76;51.75;99615.31;5050396;28;20060;-61
2022/06/06 09:53:42;;;;;;;2.72;1.70;;;;;;;21.90;51.38;99624.50;5071872;28;20071;-62
2022/06/06 09:59:49;;;;;;;2.22;1.70;;;;;;;21.96;49.88;99618.50;5071838;28;20048;-62
2022/06/06 10:02:53;;;;;;;4.03;1.50;;;;;;;21.90;48.15;99621.84;5071964;28;20113;-62
2022/06/06 10:05:59;;;;;;;1.88;1.73;;;;;;;21.84;49.02;99625.19;5071754;28;20127;-61
2022/06/06 10:09:12;;;;;;;1.85;1.40;;;;;;;21.76;49.75;99623.34;5071304;28;20514;-60
2022/06/06 10:11:51;;;;;;;2.78;1.70;;;;;;;21.70;48.62;99632.81;5071416;28;20079;-63
2022/06/06 10:14:45;;;;;;;2.55;1.90;;;;;;;21.64;49.11;99636.16;5059988;28;20398;-63
2022/06/06 10:17:27;;;;;;;3.70;1.55;;;;;;;21.58;48.12;99626.94;5050882;28;20049;-62
2022/06/06 10:20:13;;;;;;;2.63;1.70;;;;;;;21.47;48.39;99630.75;5051479;28;20080;-63
2022/06/06 10:22:44;;;;;;;2.65;1.60;;;;;;;21.41;46.98;99627.91;5049767;28;20068;-62
2022/06/06 10:25:23;;;;;;;4.63;1.60;;;;;;;21.30;48.72;99631.69;5051220;28;20049;-62
2022/06/06 10:28:00;;;;;;;4.10;1.65;;;;;;;21.22;47.92;99627.13;5051278;28;20448;-62
2022/06/06 10:31:00;;;;;;;2.33;1.60;;;;;;;21.19;48.16;99643.50;5049564;28;20086;-61
2022/06/06 10:33:36;;;;;;;2.58;1.65;;;;;;;21.25;49.36;99620.59;5027892;28;20041;-62
2022/06/06 10:36:50;;;;;;;1.52;1.40;;;;;;;21.27;49.30;99623.97;5051405;28;20048;-61
2022/06/06 10:39:31;;;;;;;4.40;1.52;;;;;;;21.37;47.43;99630.03;4973254;28;20050;-61
2022/06/06 10:42:19;;;;;;;2.10;1.52;;;;;;;21.41;48.30;99636.75;5048062;28;20053;-62
2022/06/06 10:45:07;;;;;;;2.78;1.50;;;;;;;21.57;49.13;99619.06;5050973;28;20048;-61
2022/06/06 10:47:51;;;;;;;2.75;1.50;;;;;;;21.65;48.78;99631.63;5049701;28;20485;-61
2022/06/06 10:50:31;;;;;;;2.03;1.50;;;;;;;21.78;47.36;99625.81;5050927;28;20052;-63
2022/06/06 10:53:33;;;;;;;2.13;1.40;;;;;;;21.92;48.75;99624.34;5049749;28;20056;-63
2022/06/06 10:56:11;;;;;;;1.35;1.17;;;;;;;22.19;48.80;99623.22;5049991;28;20049;-63
2022/06/06 10:59:06;;;;;;;2.95;1.10;;;;;;;22.48;47.69;99616.50;5050600;28;20049;-63
2022/06/06 11:01:57;;;;;;;2.63;1.50;;;;;;;22.84;48.01;99612.59;5050769;28;20094;-62
2022/06/06 11:04:55;;;;;;;1.58;1.20;;;;;;;23.11;46.44;99607.00;5050692;28;20059;-62
2022/06/06 11:07:57;;;;;;;6.00;1.50;;;;;;;23.36;47.12;99602.38;5050743;28;20053;-64
2022/06/06 11:10:37;;;;;;;1.77;1.17;;;;;;;23.76;49.37;99605.03;5050215;28;20056;-61
2022/06/06 11:13:35;;;;;;;1.52;1.00;;;;;;;24.20;47.16;99597.34;5050510;28;20092;-61
2022/06/06 11:16:19;;;;;;;3.67;1.40;;;;;;;24.57;44.93;99608.28;5050873;28;20057;-63
2022/06/06 11:19:09;;;;;;;1.38;1.10;;;;;;;24.68;44.00;99613.22;5050717;28;20048;-62
2022/06/06 11:22:02;;;;;;;1.83;1.02;;;;;;;24.66;43.49;99612.56;5050641;28;20695;-61
2022/06/06 11:24:47;;;;;;;2.58;1.40;;;;;;;24.49;42.15;99600.28;5050878;28;20055;-63
2022/06/06 11:27:35;;;;;;;2.17;1.42;;;;;;;24.20;42.71;99600.03;5050874;28;20059;-61
2022/06/06 11:30:27;;;;;;;2.20;1.35;;;;;;;23.91;43.24;99599.72;5050695;28;20068;-62
2022/06/06 11:33:15;;;;;;;2.45;1.17;;;;;;;23.65;43.35;99600.91;5050615;28;20404;-62
2022/06/06 11:36:26;;;;;;;1.88;1.30;;;;;;;23.43;43.51;99579.19;5050476;28;20515;-62
2022/06/06 11:39:11;;;;;;;1.10;1.05;;;;;;;23.26;43.47;99585.63;5017316;28;20056;-64
2022/06/06 11:42:09;;;;;;;1.05;0.95;;;;;;;23.06;44.32;99594.09;5050308;28;20055;-64
2022/06/06 11:45:00;;;;;;;1.70;1.15;;;;;;;22.90;44.73;99603.03;5050604;28;20045;-61
2022/06/06 11:47:39;;;;;;;2.05;1.10;;;;;;;22.75;47.39;99605.59;5050536;28;20053;-64
2022/06/06 11:50:08;;;;;;;1.73;1.15;;;;;;;22.85;47.98;99606.25;5050026;28;20056;-66
2022/06/06 11:52:44;;;;;;;3.38;1.27;;;;;;;23.14;49.35;99604.78;5050426;28;20049;-62
2022/06/06 11:55:34;;;;;;;1.52;1.00;;;;;;;23.64;49.19;99593.00;5049013;28;20064;-64
2022/06/06 11:58:22;;;;;;;1.98;1.05;;;;;;;24.27;48.38;99592.91;5050172;28;20053;-62
2022/06/06 12:00:57;;;;;;;1.30;0.93;;;;;;;24.79;44.99;99594.94;5050073;28;20057;-62
2022/06/06 12:03:51;;;;;;;1.52;0.90;;;;;;;25.14;44.91;99586.31;5050184;28;20079;-62
2022/06/06 12:06:27;;;;;;;1.98;1.05;;;;;;;25.49;45.03;99581.16;5051015;28;20100;-61
2022/06/06 12:08:56;;;;;;;2.00;0.90;;;;;;;25.72;43.95;99578.28;5054036;28;20076;-61
2022/06/06 12:11:38;;;;;;;1.33;0.80;;;;;;;25.91;41.82;99580.56;5053601;28;20045;-63
2022/06/06 12:14:20;;;;;;;1.35;0.80;;;;;;;26.12;42.00;99577.00;5054014;28;20060;-62
2022/06/06 12:17:05;;;;;;;2.67;0.73;;;;;;;26.33;42.65;99572.63;5052653;28;20056;-62
2022/06/06 12:20:05;;;;;;;2.85;0.80;;;;;;;26.47;41.33;99574.41;5053942;28;20068;-62
2022/06/06 12:22:54;;;;;;;4.70;0.90;;;;;;;26.58;41.26;99581.13;5053682;28;20099;-63
2022/06/06 12:25:26;;;;;;;1.38;0.80;;;;;;;26.64;40.19;99569.53;5052419;28;20049;-63
2022/06/06 12:28:01;;;;;;;2.65;0.73;;;;;;;26.57;38.48;99565.94;5054220;28;20064;-61
2022/06/06 12:30:54;;;;;;;1.20;0.70;;;;;;;26.40;39.50;99566.25;5052266;28;20052;-61
2022/06/06 12:33:31;;;;;;;1.45;0.65;;;;;;;26.28;36.86;99562.44;5053442;28;20077;-62
2022/06/06 12:36:07;;;;;;;0.75;0.50;;;;;;;26.07;37.39;99553.31;5052027;28;20056;-62
2022/06/06 12:38:58;;;;;;;2.58;0.80;;;;;;;25.80;38.64;99549.56;5052385;28;20049;-62
2022/06/06 12:41:52;;;;;;;1.42;0.60;;;;;;;25.52;38.14;99571.84;5051866;28;20064;-62
2022/06/06 12:44:21;;;;;;;0.52;0.52;;;;;;;25.32;38.15;99545.50;5052066;28;20102;-62
2022/06/06 12:47:17;;;;;;;0.50;0.50;;;;;;;25.10;39.33;99553.53;5053405;28;20079;-64
2022/06/06 12:49:56;;;;;;;0.55;0.55;;;;;;;25.04;38.27;99548.91;5053311;28;20049;-61
2022/06/06 12:52:40;;;;;;;2.38;0.55;;;;;;;25.03;39.13;99536.44;5052843;28;20049;-64